createdAt,value
2023-03-03T00:03:27.307Z,99.26
2023-03-03T00:08:29.221Z,99.35
2023-03-03T00:13:32.584Z,99.14
2023-03-03T00:18:35.609Z,99.51
2023-03-03T00:23:38.020Z,99.74
2023-03-03T00:28:44.717Z,98.82
2023-03-03T00:33:48.176Z,98.69
2023-03-03T00:38:49.948Z,98.48
2023-03-03T00:43:53.073Z,97.71
2023-03-03T00:48:54.836Z,96.93
2023-03-03T00:53:56.739Z,98.31
2023-03-03T00:58:59.752Z,98.04
2023-03-03T01:04:03.705Z,98.84
2023-03-03T01:09:06.259Z,98.28
2023-03-03T01:14:10.531Z,98.51
2023-03-03T01:19:12.264Z,97.67
2023-03-03T01:24:14.028Z,97.25
2023-03-03T01:29:17.045Z,97.43
2023-03-03T01:34:18.878Z,96.92
2023-03-03T01:39:20.552Z,95.92
2023-03-03T01:44:23.609Z,96.27
2023-03-03T01:49:26.558Z,95.56
2023-03-03T01:54:29.485Z,95.25
2023-03-03T01:59:34.148Z,96.38
2023-03-03T02:04:35.938Z,95.10
2023-03-03T02:09:42.940Z,94.65
2023-03-03T02:14:45.988Z,95.24
2023-03-03T02:19:51.874Z,95.63
2023-03-03T02:24:55.308Z,94.92
2023-03-03T02:29:58.729Z,95.31
2023-03-03T02:35:00.871Z,95.32
2023-03-03T02:40:02.822Z,95.35
2023-03-03T02:45:07.999Z,95.47
2023-03-03T02:50:10.852Z,95.72
2023-03-03T02:55:12.563Z,95.89
2023-03-03T03:00:16.049Z,96.10
2023-03-03T03:05:17.794Z,95.70
2023-03-03T03:10:20.653Z,95.94
2023-03-03T03:15:24.574Z,96.19
2023-03-03T03:20:26.333Z,96.43
2023-03-03T03:25:28.408Z,95.92
2023-03-03T03:30:32.302Z,96.25
2023-03-03T03:35:34.274Z,96.50
2023-03-03T03:40:36.073Z,96.05
2023-03-03T03:45:39.625Z,95.91
2023-03-03T03:50:42.320Z,95.97
2023-03-03T03:55:44.825Z,96.30
2023-03-03T04:00:48.520Z,96.31
2023-03-03T04:05:52.592Z,96.05
2023-03-03T04:10:54.918Z,96.43
2023-03-03T04:15:58.122Z,95.64
2023-03-03T04:20:59.964Z,94.94
2023-03-03T04:26:03.067Z,95.19
2023-03-03T04:31:06.943Z,94.77
2023-03-03T04:36:09.485Z,94.76
2023-03-03T04:41:12.440Z,94.96
2023-03-03T04:46:15.951Z,95.04
2023-03-03T04:51:18.695Z,95.19
2023-03-03T04:56:20.745Z,95.52
2023-03-03T05:01:25.867Z,95.13
2023-03-03T05:06:27.696Z,94.85
2023-03-03T05:11:29.470Z,95.13
2023-03-03T05:16:32.498Z,95.35
2023-03-03T05:21:36.919Z,95.39
2023-03-03T05:26:39.773Z,95.54
2023-03-03T05:31:45.414Z,94.96
2023-03-03T05:36:47.267Z,95.29
2023-03-03T05:41:49.008Z,95.36
2023-03-03T05:46:52.187Z,95.81
2023-03-03T05:51:53.890Z,95.93
2023-03-03T05:56:57.251Z,96.48
2023-03-03T06:02:00.291Z,96.59
2023-03-03T06:07:01.954Z,96.39
2023-03-03T06:12:03.874Z,96.40
2023-03-03T06:17:06.879Z,96.69
2023-03-03T06:22:08.733Z,96.84
2023-03-03T06:27:10.474Z,97.51
2023-03-03T06:32:13.572Z,97.10
2023-03-03T06:37:15.312Z,97.44
2023-03-03T06:42:17.070Z,97.87
2023-03-03T06:47:20.107Z,97.59
2023-03-03T06:52:23.668Z,97.76
2023-03-03T06:57:26.811Z,97.61
2023-03-03T07:02:29.862Z,98.09
2023-03-03T07:07:31.541Z,97.46
2023-03-03T07:12:33.250Z,96.34
2023-03-03T07:17:36.289Z,95.35
2023-03-03T07:22:37.964Z,95.46
2023-03-03T07:27:39.631Z,94.75
2023-03-03T07:32:43.480Z,95.06
2023-03-03T07:37:45.170Z,95.16
2023-03-03T07:42:47.045Z,94.81
2023-03-03T07:48:09.232Z,94.94
2023-03-03T07:53:12.878Z,94.86
2023-03-03T07:58:19.120Z,94.92
2023-03-03T08:03:22.161Z,94.38
2023-03-03T08:08:31.476Z,94.36
2023-03-03T08:13:39.874Z,93.59
2023-03-03T08:18:46.266Z,93.98
2023-03-03T08:23:51.440Z,94.37
2023-03-03T08:28:53.372Z,93.32
2023-03-03T08:33:56.987Z,93.19
2023-03-03T08:38:58.686Z,93.21
2023-03-03T08:44:00.390Z,93.59
2023-03-03T08:49:03.441Z,93.03
2023-03-03T08:54:05.202Z,92.32
2023-03-03T08:59:06.925Z,91.68
2023-03-03T09:04:10.157Z,92.03
2023-03-03T09:09:11.874Z,92.68
2023-03-03T09:14:14.394Z,91.30
2023-03-03T09:19:21.292Z,92.20
2023-03-03T09:24:26.945Z,91.89
2023-03-03T09:29:29.366Z,91.92
2023-03-03T09:34:38.497Z,91.75
2023-03-03T09:39:40.230Z,92.64
2023-03-03T09:45:15.175Z,91.68
2023-03-03T09:50:27.829Z,90.30
2023-03-03T09:55:37.252Z,89.54
2023-03-03T10:00:43.855Z,88.62
2023-03-03T10:05:49.433Z,87.33
2023-03-03T10:10:56.823Z,86.98
2023-03-03T10:16:19.722Z,86.72
2023-03-03T10:21:24.371Z,83.92
2023-03-03T10:27:13.124Z,82.99
2023-03-03T10:32:51.597Z,84.77
2023-03-03T10:38:02.638Z,87.15
2023-03-03T10:43:31.846Z,85.83
2023-03-03T10:48:42.938Z,83.40
2023-03-03T10:53:48.446Z,83.23
2023-03-03T10:58:55.113Z,82.09
2023-03-03T11:04:21.215Z,81.72
2023-03-03T11:09:47.499Z,81.55
2023-03-03T11:14:51.254Z,81.62
2023-03-03T11:19:59.738Z,80.83
2023-03-03T11:25:08.502Z,80.07
2023-03-03T11:30:22.397Z,80.95
2023-03-03T11:35:26.520Z,80.75
2023-03-03T11:40:32.784Z,80.59
2023-03-03T11:45:37.708Z,75.38
2023-03-03T11:50:42.759Z,76.13
2023-03-03T11:55:49.553Z,77.84
2023-03-03T12:00:52.136Z,79.11
2023-03-03T12:05:56.642Z,79.04
2023-03-03T12:11:01.962Z,76.99
2023-03-03T12:16:07.565Z,76.03
2023-03-03T12:21:15.978Z,78.10
2023-03-03T12:26:20.583Z,78.70
2023-03-03T12:31:31.067Z,76.53
2023-03-03T12:36:45.222Z,76.03
2023-03-03T12:41:51.586Z,75.98
2023-03-03T12:46:56.638Z,76.89
2023-03-03T12:52:06.049Z,73.56
2023-03-03T12:57:14.303Z,71.34
2023-03-03T13:02:26.805Z,73.25
2023-03-03T13:07:31.902Z,71.86
2023-03-03T13:12:39.089Z,71.71
2023-03-03T13:17:43.666Z,73.46
2023-03-03T13:22:48.312Z,73.70
2023-03-03T13:27:53.540Z,75.01
2023-03-03T13:32:58.966Z,75.72
2023-03-03T13:38:00.737Z,75.35
2023-03-03T13:43:05.024Z,75.07
2023-03-03T13:48:10.793Z,73.85
2023-03-03T13:53:25.489Z,73.65
2023-03-03T13:58:34.354Z,73.46
2023-03-03T14:03:52.676Z,73.92
2023-03-03T14:09:15.410Z,72.00
2023-03-03T14:14:28.400Z,71.73
2023-03-03T14:19:33.009Z,73.13
2023-03-03T14:24:54.999Z,75.33
2023-03-03T14:29:58.105Z,76.13
2023-03-03T14:35:02.472Z,75.45
2023-03-03T14:40:15.083Z,74.64
2023-03-03T14:45:30.619Z,75.07
2023-03-03T14:50:36.502Z,76.54
2023-03-03T14:55:39.674Z,78.30
2023-03-03T15:00:43.005Z,78.59
2023-03-03T15:05:49.587Z,80.45
2023-03-03T15:10:51.379Z,81.50
2023-03-03T15:16:03.427Z,81.89
2023-03-03T15:21:05.315Z,82.21
2023-03-03T15:26:09.596Z,85.91
2023-03-03T15:31:18.284Z,83.20
2023-03-03T15:36:25.798Z,83.97
2023-03-03T15:41:37.181Z,85.08
2023-03-03T15:46:51.219Z,85.30
2023-03-03T15:52:03.732Z,85.29
2023-03-03T15:57:13.183Z,86.12
2023-03-03T16:02:18.106Z,85.98
2023-03-03T16:07:26.519Z,86.78
2023-03-03T16:12:31.260Z,86.58
2023-03-03T16:17:39.376Z,87.34
2023-03-03T16:22:54.717Z,87.43
2023-03-03T16:27:58.420Z,88.04
2023-03-03T16:33:09.321Z,88.35
2023-03-03T16:38:12.772Z,88.51
2023-03-03T16:43:19.158Z,88.65
2023-03-03T16:48:26.009Z,89.32
2023-03-03T16:53:39.646Z,89.62
2023-03-03T16:58:46.506Z,89.86
2023-03-03T17:03:58.552Z,90.62
2023-03-03T17:09:32.250Z,91.21
2023-03-03T17:14:44.442Z,91.80
2023-03-03T17:19:57.291Z,91.95
2023-03-03T17:25:08.695Z,92.76
2023-03-03T17:30:13.004Z,95.81
2023-03-03T17:35:24.061Z,92.23
2023-03-03T17:40:34.698Z,92.03
2023-03-03T17:45:37.745Z,91.39
2023-03-03T17:50:56.044Z,91.84
2023-03-03T17:56:08.574Z,92.32
2023-03-03T18:01:17.531Z,92.10
2023-03-03T18:06:32.349Z,92.10
2023-03-03T18:11:45.082Z,91.87
2023-03-03T18:16:56.735Z,92.31
2023-03-03T18:22:05.720Z,91.73
2023-03-03T18:27:27.828Z,91.99
2023-03-03T18:32:40.160Z,92.13
2023-03-03T18:37:44.965Z,91.59
2023-03-03T18:42:49.037Z,91.80
2023-03-03T18:48:04.381Z,91.98
2023-03-03T18:53:15.921Z,92.40
2023-03-03T18:58:42.216Z,92.76
2023-03-03T19:04:01.532Z,92.82
2023-03-03T19:09:04.642Z,92.59
2023-03-03T19:14:29.601Z,92.60
2023-03-03T19:19:34.859Z,92.75
2023-03-03T19:24:38.373Z,92.46
2023-03-03T19:30:11.046Z,92.29
2023-03-03T19:35:24.292Z,91.97
2023-03-03T19:40:28.871Z,91.91
2023-03-03T19:45:43.495Z,91.84
2023-03-03T19:50:49.060Z,91.79
2023-03-03T19:56:00.825Z,91.96
2023-03-03T20:01:08.365Z,92.11
2023-03-03T20:06:17.148Z,91.54
2023-03-03T20:11:25.088Z,91.80
2023-03-03T20:16:33.506Z,91.85
2023-03-03T20:21:36.099Z,91.64
2023-03-03T20:26:43.656Z,91.69
2023-03-03T20:31:48.729Z,91.46
2023-03-03T20:36:56.442Z,91.31
2023-03-03T20:42:05.841Z,90.99
2023-03-03T20:47:10.533Z,90.85
2023-03-03T20:52:14.535Z,91.20
2023-03-03T20:57:19.486Z,90.68
2023-03-03T21:02:24.051Z,90.11
2023-03-03T21:07:26.189Z,90.03
2023-03-03T21:12:29.934Z,89.18
2023-03-03T21:17:31.773Z,88.86
2023-03-03T21:22:33.476Z,88.90
2023-03-03T21:27:39.149Z,88.70
2023-03-03T21:32:41.691Z,89.22
2023-03-03T21:37:45.760Z,89.15
2023-03-03T21:42:48.938Z,89.43
2023-03-03T21:47:50.793Z,89.75
2023-03-03T21:52:52.488Z,89.83
2023-03-03T21:57:55.521Z,90.39
2023-03-03T22:02:57.520Z,91.00
2023-03-03T22:07:59.253Z,91.03
2023-03-03T22:13:02.357Z,95.48
2023-03-03T22:18:04.363Z,93.64
2023-03-03T22:23:06.083Z,88.89
2023-03-03T22:28:09.242Z,89.17
2023-03-03T22:33:11.177Z,89.84
2023-03-03T22:38:12.884Z,90.28
2023-03-03T22:43:16.014Z,90.83
2023-03-03T22:48:17.778Z,91.09
2023-03-03T22:53:19.664Z,91.36
2023-03-03T22:58:25.366Z,91.59
2023-03-03T23:03:27.057Z,91.92
2023-03-03T23:08:28.785Z,92.50
2023-03-03T23:13:32.413Z,92.21
2023-03-03T23:18:34.069Z,92.09
2023-03-03T23:23:35.753Z,91.92
2023-03-03T23:28:38.724Z,91.79
2023-03-03T23:33:40.484Z,91.58
2023-03-03T23:38:43.242Z,91.61
2023-03-03T23:43:46.349Z,91.39
2023-03-03T23:48:48.000Z,91.36
2023-03-03T23:53:49.632Z,91.19
2023-03-03T23:58:52.652Z,90.39
